sensor_id;sensor_type;location;lat;lon;timestamp;temperature;humidity
3005;DHT22;1512;51.486;6.610;2024-01-15T00:00:33;1.30;99.90
3005;DHT22;1512;51.486;6.610;2024-01-15T00:04:43;1.40;99.90
3005;DHT22;1512;51.486;6.610;2024-01-15T00:08:51;1.40;99.90
3005;DHT22;1512;51.486;6.610;2024-01-15T00:13:00;1.40;99.90
3005;DHT22;1512;51.486;6.610;2024-01-15T00:17:08;1.50;99.90
3005;DHT22;1512;51.486;6.610;2024-01-15T00:21:37;1.50;99.90
3005;DHT22;1512;51.486;6.610;2024-01-15T00:26:04;1.50;99.90
3005;DHT22;1512;51.486;6.610;2024-01-15T00:30:15;1.50;99.90
3005;DHT22;1512;51.486;6.610;2024-01-15T00:34:23;1.50;99.90
3005;DHT22;1512;51.486;6.610;2024-01-15T00:38:32;1.50;99.90
3005;DHT22;1512;51.486;6.610;2024-01-15T00:42:41;1.40;99.90
3005;DHT22;1512;51.486;6.610;2024-01-15T00:46:50;1.50;99.90
3005;DHT22;1512;51.486;6.610;2024-01-15T00:50:59;1.40;99.90
3005;DHT22;1512;51.486;6.610;2024-01-15T00:55:08;1.40;99.90
3005;DHT22;1512;51.486;6.610;2024-01-15T00:59:16;1.50;99.90
3005;DHT22;1512;51.486;6.610;2024-01-15T01:03:25;1.50;99.90
3005;DHT22;1512;51.486;6.610;2024-01-15T01:07:34;1.50;99.90
3005;DHT22;1512;51.486;6.610;2024-01-15T01:11:43;1.50;99.90
3005;DHT22;1512;51.486;6.610;2024-01-15T01:15:52;1.50;99.90
3005;DHT22;1512;51.486;6.610;2024-01-15T01:20:00;1.50;99.90
3005;DHT22;1512;51.486;6.610;2024-01-15T01:24:11;1.50;99.90
3005;DHT22;1512;51.486;6.610;2024-01-15T01:28:20;1.50;99.90
3005;DHT22;1512;51.486;6.610;2024-01-15T01:32:29;1.50;99.90
3005;DHT22;1512;51.486;6.610;2024-01-15T01:36:37;1.50;99.90
3005;DHT22;1512;51.486;6.610;2024-01-15T01:40:46;1.50;99.90
3005;DHT22;1512;51.486;6.610;2024-01-15T01:44:55;1.50;99.90
3005;DHT22;1512;51.486;6.610;2024-01-15T01:49:03;1.50;99.90
3005;DHT22;1512;51.486;6.610;2024-01-15T01:53:14;1.50;99.90
3005;DHT22;1512;51.486;6.610;2024-01-15T01:57:23;1.50;99.90
3005;DHT22;1512;51.486;6.610;2024-01-15T02:01:32;1.50;99.90
3005;DHT22;1512;51.486;6.610;2024-01-15T02:05:41;1.50;99.90
3005;DHT22;1512;51.486;6.610;2024-01-15T02:09:52;1.60;99.90
3005;DHT22;1512;51.486;6.610;2024-01-15T02:14:02;1.60;99.90
3005;DHT22;1512;51.486;6.610;2024-01-15T02:18:10;1.60;99.90
3005;DHT22;1512;51.486;6.610;2024-01-15T02:22:19;1.60;99.90
3005;DHT22;1512;51.486;6.610;2024-01-15T02:26:28;1.50;99.90
3005;DHT22;1512;51.486;6.610;2024-01-15T02:30:37;1.50;99.90
3005;DHT22;1512;51.486;6.610;2024-01-15T02:34:49;1.60;99.90
3005;DHT22;1512;51.486;6.610;2024-01-15T02:38:58;1.50;99.90
3005;DHT22;1512;51.486;6.610;2024-01-15T02:43:07;1.50;99.90
3005;DHT22;1512;51.486;6.610;2024-01-15T02:47:15;1.50;99.90
3005;DHT22;1512;51.486;6.610;2024-01-15T02:51:24;1.50;99.90
3005;DHT22;1512;51.486;6.610;2024-01-15T02:55:33;1.60;99.90
3005;DHT22;1512;51.486;6.610;2024-01-15T02:59:41;1.60;99.90
3005;DHT22;1512;51.486;6.610;2024-01-15T03:03:50;1.60;99.90
3005;DHT22;1512;51.486;6.610;2024-01-15T03:07:59;1.50;99.90
3005;DHT22;1512;51.486;6.610;2024-01-15T03:12:07;1.50;99.90
3005;DHT22;1512;51.486;6.610;2024-01-15T03:16:18;1.50;99.90
3005;DHT22;1512;51.486;6.610;2024-01-15T03:20:47;1.40;99.90
3005;DHT22;1512;51.486;6.610;2024-01-15T03:24:55;1.40;99.90
3005;DHT22;1512;51.486;6.610;2024-01-15T03:29:04;1.40;99.90
3005;DHT22;1512;51.486;6.610;2024-01-15T03:33:12;1.40;99.90
3005;DHT22;1512;51.486;6.610;2024-01-15T03:37:21;1.40;99.90
3005;DHT22;1512;51.486;6.610;2024-01-15T03:41:30;1.40;99.90
3005;DHT22;1512;51.486;6.610;2024-01-15T03:45:38;1.40;99.90
3005;DHT22;1512;51.486;6.610;2024-01-15T03:49:47;1.30;99.90
3005;DHT22;1512;51.486;6.610;2024-01-15T03:53:56;1.30;99.90
3005;DHT22;1512;51.486;6.610;2024-01-15T03:58:04;1.40;99.90
3005;DHT22;1512;51.486;6.610;2024-01-15T04:02:13;1.30;99.90
3005;DHT22;1512;51.486;6.610;2024-01-15T04:06:22;1.30;99.90
3005;DHT22;1512;51.486;6.610;2024-01-15T04:10:31;1.30;99.90
3005;DHT22;1512;51.486;6.610;2024-01-15T04:14:39;1.30;99.90
3005;DHT22;1512;51.486;6.610;2024-01-15T04:18:48;1.40;99.90
3005;DHT22;1512;51.486;6.610;2024-01-15T04:22:57;1.30;99.90
3005;DHT22;1512;51.486;6.610;2024-01-15T04:27:06;1.30;99.90
3005;DHT22;1512;51.486;6.610;2024-01-15T04:31:25;1.30;99.90
3005;DHT22;1512;51.486;6.610;2024-01-15T04:35:37;1.30;99.90
3005;DHT22;1512;51.486;6.610;2024-01-15T04:39:45;1.30;99.90
3005;DHT22;1512;51.486;6.610;2024-01-15T04:43:54;1.30;99.90
3005;DHT22;1512;51.486;6.610;2024-01-15T04:48:03;1.30;99.90
3005;DHT22;1512;51.486;6.610;2024-01-15T04:52:12;1.30;99.90
3005;DHT22;1512;51.486;6.610;2024-01-15T04:56:20;1.40;99.90
3005;DHT22;1512;51.486;6.610;2024-01-15T05:00:29;1.40;99.90
3005;DHT22;1512;51.486;6.610;2024-01-15T05:04:38;1.30;99.90
3005;DHT22;1512;51.486;6.610;2024-01-15T05:08:47;1.30;99.90
3005;DHT22;1512;51.486;6.610;2024-01-15T05:12:55;1.30;99.90
3005;DHT22;1512;51.486;6.610;2024-01-15T05:17:04;1.40;99.90
3005;DHT22;1512;51.486;6.610;2024-01-15T05:21:14;1.40;99.90
3005;DHT22;1512;51.486;6.610;2024-01-15T05:25:23;1.40;99.90
3005;DHT22;1512;51.486;6.610;2024-01-15T05:29:31;1.40;99.90
3005;DHT22;1512;51.486;6.610;2024-01-15T05:33:40;1.40;99.90
3005;DHT22;1512;51.486;6.610;2024-01-15T05:37:49;1.40;99.90
3005;DHT22;1512;51.486;6.610;2024-01-15T05:41:58;1.40;99.90
3005;DHT22;1512;51.486;6.610;2024-01-15T05:46:08;1.40;99.90
3005;DHT22;1512;51.486;6.610;2024-01-15T05:50:17;1.50;99.90
3005;DHT22;1512;51.486;6.610;2024-01-15T05:54:26;1.50;99.90
3005;DHT22;1512;51.486;6.610;2024-01-15T05:58:34;1.50;99.90
3005;DHT22;1512;51.486;6.610;2024-01-15T06:02:43;1.50;99.90
3005;DHT22;1512;51.486;6.610;2024-01-15T06:06:52;1.50;99.90
3005;DHT22;1512;51.486;6.610;2024-01-15T06:11:00;1.60;99.90
3005;DHT22;1512;51.486;6.610;2024-01-15T06:15:09;1.60;99.90
3005;DHT22;1512;51.486;6.610;2024-01-15T06:19:18;1.60;99.90
3005;DHT22;1512;51.486;6.610;2024-01-15T06:23:26;1.70;99.90
3005;DHT22;1512;51.486;6.610;2024-01-15T06:27:35;1.70;99.90
3005;DHT22;1512;51.486;6.610;2024-01-15T06:31:44;1.70;99.90
3005;DHT22;1512;51.486;6.610;2024-01-15T06:35:53;1.70;99.90
3005;DHT22;1512;51.486;6.610;2024-01-15T06:40:02;1.60;99.90
3005;DHT22;1512;51.486;6.610;2024-01-15T06:44:11;1.60;99.90
3005;DHT22;1512;51.486;6.610;2024-01-15T06:48:40;1.60;99.90
3005;DHT22;1512;51.486;6.610;2024-01-15T06:52:50;1.60;99.90
3005;DHT22;1512;51.486;6.610;2024-01-15T06:56:59;1.60;99.90
3005;DHT22;1512;51.486;6.610;2024-01-15T07:01:07;1.50;99.90
3005;DHT22;1512;51.486;6.610;2024-01-15T07:05:16;1.50;99.90
3005;DHT22;1512;51.486;6.610;2024-01-15T07:09:25;1.50;99.90
3005;DHT22;1512;51.486;6.610;2024-01-15T07:13:33;1.50;99.90
3005;DHT22;1512;51.486;6.610;2024-01-15T07:17:42;1.50;99.90
3005;DHT22;1512;51.486;6.610;2024-01-15T07:21:51;1.50;99.90
3005;DHT22;1512;51.486;6.610;2024-01-15T07:30:22;1.50;99.90
3005;DHT22;1512;51.486;6.610;2024-01-15T07:34:31;1.50;99.90
3005;DHT22;1512;51.486;6.610;2024-01-15T07:38:40;1.50;99.90
3005;DHT22;1512;51.486;6.610;2024-01-15T07:42:49;1.50;99.90
3005;DHT22;1512;51.486;6.610;2024-01-15T07:46:58;1.50;99.90
3005;DHT22;1512;51.486;6.610;2024-01-15T07:51:06;1.50;99.90
3005;DHT22;1512;51.486;6.610;2024-01-15T07:55:15;1.40;99.90
3005;DHT22;1512;51.486;6.610;2024-01-15T07:59:24;1.40;99.90
3005;DHT22;1512;51.486;6.610;2024-01-15T08:03:32;1.40;99.90
3005;DHT22;1512;51.486;6.610;2024-01-15T08:07:41;1.30;99.90
3005;DHT22;1512;51.486;6.610;2024-01-15T08:11:50;1.30;99.90
3005;DHT22;1512;51.486;6.610;2024-01-15T08:15:58;1.40;99.90
3005;DHT22;1512;51.486;6.610;2024-01-15T08:20:07;1.40;99.90
3005;DHT22;1512;51.486;6.610;2024-01-15T08:24:16;1.40;99.90
3005;DHT22;1512;51.486;6.610;2024-01-15T08:28:25;1.40;99.90
3005;DHT22;1512;51.486;6.610;2024-01-15T08:32:33;1.40;99.90
3005;DHT22;1512;51.486;6.610;2024-01-15T08:36:44;1.40;99.90
3005;DHT22;1512;51.486;6.610;2024-01-15T08:40:52;1.30;99.90
3005;DHT22;1512;51.486;6.610;2024-01-15T08:45:03;1.20;99.90
3005;DHT22;1512;51.486;6.610;2024-01-15T08:49:11;1.10;99.90
3005;DHT22;1512;51.486;6.610;2024-01-15T08:53:20;1.00;99.90
3005;DHT22;1512;51.486;6.610;2024-01-15T08:57:29;1.00;99.90
3005;DHT22;1512;51.486;6.610;2024-01-15T09:01:38;1.00;99.90
3005;DHT22;1512;51.486;6.610;2024-01-15T09:05:47;1.00;99.90
3005;DHT22;1512;51.486;6.610;2024-01-15T09:09:58;1.10;99.90
3005;DHT22;1512;51.486;6.610;2024-01-15T09:14:07;1.20;99.90
3005;DHT22;1512;51.486;6.610;2024-01-15T09:18:16;1.30;99.90
3005;DHT22;1512;51.486;6.610;2024-01-15T09:22:25;1.30;99.90
3005;DHT22;1512;51.486;6.610;2024-01-15T09:26:34;1.40;99.90
3005;DHT22;1512;51.486;6.610;2024-01-15T09:30:42;1.40;99.90
3005;DHT22;1512;51.486;6.610;2024-01-15T09:34:52;1.40;99.90
3005;DHT22;1512;51.486;6.610;2024-01-15T09:39:01;1.50;99.90
3005;DHT22;1512;51.486;6.610;2024-01-15T09:43:10;1.40;99.90
3005;DHT22;1512;51.486;6.610;2024-01-15T09:47:19;1.40;99.90
3005;DHT22;1512;51.486;6.610;2024-01-15T09:51:31;1.40;99.90
3005;DHT22;1512;51.486;6.610;2024-01-15T09:55:40;1.40;99.90
3005;DHT22;1512;51.486;6.610;2024-01-15T09:59:50;1.40;99.90
3005;DHT22;1512;51.486;6.610;2024-01-15T10:04:00;1.40;99.90
3005;DHT22;1512;51.486;6.610;2024-01-15T10:08:10;1.40;99.90
3005;DHT22;1512;51.486;6.610;2024-01-15T10:12:19;1.40;99.90
3005;DHT22;1512;51.486;6.610;2024-01-15T10:16:29;1.50;99.90
3005;DHT22;1512;51.486;6.610;2024-01-15T10:20:38;1.50;99.90
3005;DHT22;1512;51.486;6.610;2024-01-15T10:24:47;1.60;99.90
3005;DHT22;1512;51.486;6.610;2024-01-15T10:28:58;1.60;99.90
3005;DHT22;1512;51.486;6.610;2024-01-15T10:33:06;1.50;99.90
3005;DHT22;1512;51.486;6.610;2024-01-15T10:37:15;1.50;99.90
3005;DHT22;1512;51.486;6.610;2024-01-15T10:41:24;1.50;99.90
3005;DHT22;1512;51.486;6.610;2024-01-15T10:45:32;1.50;99.90
3005;DHT22;1512;51.486;6.610;2024-01-15T10:49:41;1.50;99.90
3005;DHT22;1512;51.486;6.610;2024-01-15T10:53:50;1.60;99.90
3005;DHT22;1512;51.486;6.610;2024-01-15T10:58:00;1.60;99.90
3005;DHT22;1512;51.486;6.610;2024-01-15T11:02:09;1.70;99.90
3005;DHT22;1512;51.486;6.610;2024-01-15T11:06:19;1.80;99.90
3005;DHT22;1512;51.486;6.610;2024-01-15T11:10:42;1.80;99.90
3005;DHT22;1512;51.486;6.610;2024-01-15T11:15:00;1.80;99.90
3005;DHT22;1512;51.486;6.610;2024-01-15T11:19:05;1.80;99.90
3005;DHT22;1512;51.486;6.610;2024-01-15T11:23:41;1.90;99.90
3005;DHT22;1512;51.486;6.610;2024-01-15T11:27:44;1.80;99.90
3005;DHT22;1512;51.486;6.610;2024-01-15T11:31:57;1.80;99.90
3005;DHT22;1512;51.486;6.610;2024-01-15T11:36:07;1.80;99.90
3005;DHT22;1512;51.486;6.610;2024-01-15T11:40:18;1.80;99.90
3005;DHT22;1512;51.486;6.610;2024-01-15T11:44:27;1.70;99.90
3005;DHT22;1512;51.486;6.610;2024-01-15T11:48:47;1.80;99.90
3005;DHT22;1512;51.486;6.610;2024-01-15T11:53:02;1.80;99.90
3005;DHT22;1512;51.486;6.610;2024-01-15T11:57:17;1.90;99.90
3005;DHT22;1512;51.486;6.610;2024-01-15T12:01:25;2.00;99.90
3005;DHT22;1512;51.486;6.610;2024-01-15T12:05:36;2.00;99.90
3005;DHT22;1512;51.486;6.610;2024-01-15T12:09:44;2.10;99.90
3005;DHT22;1512;51.486;6.610;2024-01-15T12:13:53;2.10;99.90
3005;DHT22;1512;51.486;6.610;2024-01-15T12:18:03;2.30;99.90
3005;DHT22;1512;51.486;6.610;2024-01-15T12:22:12;2.40;99.90
3005;DHT22;1512;51.486;6.610;2024-01-15T12:26:20;2.50;99.90
3005;DHT22;1512;51.486;6.610;2024-01-15T12:30:30;2.50;99.90
3005;DHT22;1512;51.486;6.610;2024-01-15T12:34:43;2.60;99.90
3005;DHT22;1512;51.486;6.610;2024-01-15T12:39:11;2.60;99.90
3005;DHT22;1512;51.486;6.610;2024-01-15T12:43:20;2.50;99.90
3005;DHT22;1512;51.486;6.610;2024-01-15T12:47:30;2.50;99.90
3005;DHT22;1512;51.486;6.610;2024-01-15T12:51:39;2.40;99.90
3005;DHT22;1512;51.486;6.610;2024-01-15T12:55:48;2.40;99.90
3005;DHT22;1512;51.486;6.610;2024-01-15T12:59:57;2.40;99.90
3005;DHT22;1512;51.486;6.610;2024-01-15T13:04:06;2.40;99.90
3005;DHT22;1512;51.486;6.610;2024-01-15T13:08:16;2.40;99.90
3005;DHT22;1512;51.486;6.610;2024-01-15T13:16:46;2.40;99.90
3005;DHT22;1512;51.486;6.610;2024-01-15T13:20:55;2.50;99.90
3005;DHT22;1512;51.486;6.610;2024-01-15T13:25:04;2.50;99.90
3005;DHT22;1512;51.486;6.610;2024-01-15T13:29:14;2.50;99.90
3005;DHT22;1512;51.486;6.610;2024-01-15T13:33:23;2.50;99.90
3005;DHT22;1512;51.486;6.610;2024-01-15T13:37:32;2.40;99.90
3005;DHT22;1512;51.486;6.610;2024-01-15T13:41:41;2.40;99.90
3005;DHT22;1512;51.486;6.610;2024-01-15T13:45:51;2.50;99.90
3005;DHT22;1512;51.486;6.610;2024-01-15T13:50:01;2.50;99.90
3005;DHT22;1512;51.486;6.610;2024-01-15T13:54:10;2.60;99.90
3005;DHT22;1512;51.486;6.610;2024-01-15T13:58:18;2.50;99.90
3005;DHT22;1512;51.486;6.610;2024-01-15T14:02:28;2.50;99.90
3005;DHT22;1512;51.486;6.610;2024-01-15T14:06:37;2.50;99.90
3005;DHT22;1512;51.486;6.610;2024-01-15T14:10:47;2.40;99.90
3005;DHT22;1512;51.486;6.610;2024-01-15T14:14:55;2.30;99.90
3005;DHT22;1512;51.486;6.610;2024-01-15T14:19:04;2.30;99.90
3005;DHT22;1512;51.486;6.610;2024-01-15T14:23:14;2.30;99.90
3005;DHT22;1512;51.486;6.610;2024-01-15T14:27:23;2.30;99.90
3005;DHT22;1512;51.486;6.610;2024-01-15T14:31:32;2.30;99.90
3005;DHT22;1512;51.486;6.610;2024-01-15T14:35:42;2.30;99.90
3005;DHT22;1512;51.486;6.610;2024-01-15T14:39:51;2.30;99.90
3005;DHT22;1512;51.486;6.610;2024-01-15T14:44:00;2.30;99.90
3005;DHT22;1512;51.486;6.610;2024-01-15T14:48:09;2.20;99.90
3005;DHT22;1512;51.486;6.610;2024-01-15T14:52:17;2.20;99.90
3005;DHT22;1512;51.486;6.610;2024-01-15T14:56:26;2.10;99.90
3005;DHT22;1512;51.486;6.610;2024-01-15T15:00:34;2.10;99.90
3005;DHT22;1512;51.486;6.610;2024-01-15T15:04:44;2.00;99.90
3005;DHT22;1512;51.486;6.610;2024-01-15T15:08:54;1.90;99.90
3005;DHT22;1512;51.486;6.610;2024-01-15T15:13:04;1.90;99.90
3005;DHT22;1512;51.486;6.610;2024-01-15T15:17:13;1.90;99.90
3005;DHT22;1512;51.486;6.610;2024-01-15T15:21:41;1.90;99.90
3005;DHT22;1512;51.486;6.610;2024-01-15T15:25:50;1.90;99.90
3005;DHT22;1512;51.486;6.610;2024-01-15T15:29:58;1.80;99.90
3005;DHT22;1512;51.486;6.610;2024-01-15T15:34:07;1.80;99.90
3005;DHT22;1512;51.486;6.610;2024-01-15T15:38:17;1.70;99.90
3005;DHT22;1512;51.486;6.610;2024-01-15T15:42:25;1.60;99.90
3005;DHT22;1512;51.486;6.610;2024-01-15T15:46:34;1.60;99.90
3005;DHT22;1512;51.486;6.610;2024-01-15T15:50:42;1.50;99.90
3005;DHT22;1512;51.486;6.610;2024-01-15T15:54:51;1.50;99.90
3005;DHT22;1512;51.486;6.610;2024-01-15T15:59:00;1.50;99.90
3005;DHT22;1512;51.486;6.610;2024-01-15T16:03:09;1.40;99.90
3005;DHT22;1512;51.486;6.610;2024-01-15T16:07:18;1.40;99.90
3005;DHT22;1512;51.486;6.610;2024-01-15T16:11:28;1.40;99.90
3005;DHT22;1512;51.486;6.610;2024-01-15T16:15:37;1.40;99.90
3005;DHT22;1512;51.486;6.610;2024-01-15T16:19:45;1.30;99.90
3005;DHT22;1512;51.486;6.610;2024-01-15T16:23:56;1.30;99.90
3005;DHT22;1512;51.486;6.610;2024-01-15T16:28:07;1.30;99.90
3005;DHT22;1512;51.486;6.610;2024-01-15T16:32:15;1.30;99.90
3005;DHT22;1512;51.486;6.610;2024-01-15T16:36:24;1.40;99.90
3005;DHT22;1512;51.486;6.610;2024-01-15T16:40:33;1.40;99.90
3005;DHT22;1512;51.486;6.610;2024-01-15T16:44:43;1.40;99.90
3005;DHT22;1512;51.486;6.610;2024-01-15T16:48:52;1.40;99.90
3005;DHT22;1512;51.486;6.610;2024-01-15T16:53:01;1.30;99.90
3005;DHT22;1512;51.486;6.610;2024-01-15T16:57:10;1.30;99.90
3005;DHT22;1512;51.486;6.610;2024-01-15T17:01:18;1.30;99.90
3005;DHT22;1512;51.486;6.610;2024-01-15T17:05:27;1.20;99.90
3005;DHT22;1512;51.486;6.610;2024-01-15T17:09:36;1.20;99.90
3005;DHT22;1512;51.486;6.610;2024-01-15T17:13:44;1.20;99.90
3005;DHT22;1512;51.486;6.610;2024-01-15T17:17:53;1.20;99.90
3005;DHT22;1512;51.486;6.610;2024-01-15T17:22:02;1.20;99.90
3005;DHT22;1512;51.486;6.610;2024-01-15T17:26:10;1.30;99.90
3005;DHT22;1512;51.486;6.610;2024-01-15T17:30:19;1.30;99.90
3005;DHT22;1512;51.486;6.610;2024-01-15T17:34:28;1.30;99.90
3005;DHT22;1512;51.486;6.610;2024-01-15T17:38:36;1.30;99.90
3005;DHT22;1512;51.486;6.610;2024-01-15T17:42:45;1.30;99.90
3005;DHT22;1512;51.486;6.610;2024-01-15T17:46:55;1.40;99.90
3005;DHT22;1512;51.486;6.610;2024-01-15T17:51:03;1.40;99.90
3005;DHT22;1512;51.486;6.610;2024-01-15T17:55:12;1.40;99.90
3005;DHT22;1512;51.486;6.610;2024-01-15T17:59:21;1.40;99.90
3005;DHT22;1512;51.486;6.610;2024-01-15T18:03:29;1.40;99.90
3005;DHT22;1512;51.486;6.610;2024-01-15T18:07:38;1.50;99.90
3005;DHT22;1512;51.486;6.610;2024-01-15T18:11:47;1.40;99.90
3005;DHT22;1512;51.486;6.610;2024-01-15T18:15:57;1.50;99.90
3005;DHT22;1512;51.486;6.610;2024-01-15T18:20:06;1.50;99.90
3005;DHT22;1512;51.486;6.610;2024-01-15T18:24:17;1.50;99.90
3005;DHT22;1512;51.486;6.610;2024-01-15T18:28:25;1.40;99.90
3005;DHT22;1512;51.486;6.610;2024-01-15T18:32:34;1.40;99.90
3005;DHT22;1512;51.486;6.610;2024-01-15T18:36:43;1.40;99.90
3005;DHT22;1512;51.486;6.610;2024-01-15T18:40:53;1.40;99.90
3005;DHT22;1512;51.486;6.610;2024-01-15T18:45:02;1.40;99.90
3005;DHT22;1512;51.486;6.610;2024-01-15T18:49:10;1.40;99.90
3005;DHT22;1512;51.486;6.610;2024-01-15T18:53:19;1.30;99.90
3005;DHT22;1512;51.486;6.610;2024-01-15T18:57:28;1.30;99.90
3005;DHT22;1512;51.486;6.610;2024-01-15T19:01:37;1.30;99.90
3005;DHT22;1512;51.486;6.610;2024-01-15T19:05:46;1.20;99.90
3005;DHT22;1512;51.486;6.610;2024-01-15T19:09:55;1.20;99.90
3005;DHT22;1512;51.486;6.610;2024-01-15T19:14:03;1.20;99.90
3005;DHT22;1512;51.486;6.610;2024-01-15T19:18:13;1.20;99.90
3005;DHT22;1512;51.486;6.610;2024-01-15T19:22:22;1.20;99.90
3005;DHT22;1512;51.486;6.610;2024-01-15T19:26:30;1.10;99.90
3005;DHT22;1512;51.486;6.610;2024-01-15T19:30:40;1.10;99.90
3005;DHT22;1512;51.486;6.610;2024-01-15T19:34:49;1.10;99.90
3005;DHT22;1512;51.486;6.610;2024-01-15T19:38:59;1.10;99.90
3005;DHT22;1512;51.486;6.610;2024-01-15T19:43:09;1.00;99.90
3005;DHT22;1512;51.486;6.610;2024-01-15T19:47:18;1.00;99.90
3005;DHT22;1512;51.486;6.610;2024-01-15T19:51:27;1.00;99.90
3005;DHT22;1512;51.486;6.610;2024-01-15T19:55:35;0.90;99.90
3005;DHT22;1512;51.486;6.610;2024-01-15T19:59:44;0.90;99.90
3005;DHT22;1512;51.486;6.610;2024-01-15T20:03:52;0.90;99.90
3005;DHT22;1512;51.486;6.610;2024-01-15T20:08:01;1.00;99.90
3005;DHT22;1512;51.486;6.610;2024-01-15T20:12:11;0.90;99.90
3005;DHT22;1512;51.486;6.610;2024-01-15T20:16:21;0.90;99.90
3005;DHT22;1512;51.486;6.610;2024-01-15T20:20:32;0.90;99.90
3005;DHT22;1512;51.486;6.610;2024-01-15T20:24:40;0.90;99.90
3005;DHT22;1512;51.486;6.610;2024-01-15T20:28:49;0.90;99.90
3005;DHT22;1512;51.486;6.610;2024-01-15T20:32:57;0.90;99.90
3005;DHT22;1512;51.486;6.610;2024-01-15T20:37:07;0.90;99.90
3005;DHT22;1512;51.486;6.610;2024-01-15T20:41:16;0.90;99.90
3005;DHT22;1512;51.486;6.610;2024-01-15T20:45:25;0.80;99.90
3005;DHT22;1512;51.486;6.610;2024-01-15T20:49:36;0.90;99.90
3005;DHT22;1512;51.486;6.610;2024-01-15T20:53:45;0.90;99.90
3005;DHT22;1512;51.486;6.610;2024-01-15T20:57:56;0.90;99.90
3005;DHT22;1512;51.486;6.610;2024-01-15T21:02:04;0.90;99.90
3005;DHT22;1512;51.486;6.610;2024-01-15T21:06:13;1.00;99.90
3005;DHT22;1512;51.486;6.610;2024-01-15T21:10:22;0.90;99.90
3005;DHT22;1512;51.486;6.610;2024-01-15T21:14:31;1.00;99.90
3005;DHT22;1512;51.486;6.610;2024-01-15T21:18:41;0.90;99.90
3005;DHT22;1512;51.486;6.610;2024-01-15T21:22:49;0.90;99.90
3005;DHT22;1512;51.486;6.610;2024-01-15T21:26:58;0.90;99.90
3005;DHT22;1512;51.486;6.610;2024-01-15T21:31:06;0.90;99.90
3005;DHT22;1512;51.486;6.610;2024-01-15T21:35:15;0.90;99.90
3005;DHT22;1512;51.486;6.610;2024-01-15T21:39:24;1.00;99.90
3005;DHT22;1512;51.486;6.610;2024-01-15T21:43:33;1.00;99.90
3005;DHT22;1512;51.486;6.610;2024-01-15T21:47:42;1.00;99.90
3005;DHT22;1512;51.486;6.610;2024-01-15T21:51:53;1.10;99.90
3005;DHT22;1512;51.486;6.610;2024-01-15T21:56:01;1.10;99.90
3005;DHT22;1512;51.486;6.610;2024-01-15T22:00:10;1.10;99.90
3005;DHT22;1512;51.486;6.610;2024-01-15T22:04:20;1.10;99.90
3005;DHT22;1512;51.486;6.610;2024-01-15T22:08:48;1.10;99.90
3005;DHT22;1512;51.486;6.610;2024-01-15T22:12:58;1.10;99.90
3005;DHT22;1512;51.486;6.610;2024-01-15T22:17:06;1.10;99.90
3005;DHT22;1512;51.486;6.610;2024-01-15T22:21:15;1.10;99.90
3005;DHT22;1512;51.486;6.610;2024-01-15T22:25:25;1.10;99.90
3005;DHT22;1512;51.486;6.610;2024-01-15T22:29:34;1.20;99.90
3005;DHT22;1512;51.486;6.610;2024-01-15T22:33:43;1.20;99.90
3005;DHT22;1512;51.486;6.610;2024-01-15T22:38:11;1.20;99.90
3005;DHT22;1512;51.486;6.610;2024-01-15T22:42:19;1.20;99.90
3005;DHT22;1512;51.486;6.610;2024-01-15T22:46:28;1.30;99.90
3005;DHT22;1512;51.486;6.610;2024-01-15T22:50:37;1.20;99.90
3005;DHT22;1512;51.486;6.610;2024-01-15T22:54:45;1.30;99.90
3005;DHT22;1512;51.486;6.610;2024-01-15T22:58:56;1.20;99.90
3005;DHT22;1512;51.486;6.610;2024-01-15T23:03:04;1.30;99.90
3005;DHT22;1512;51.486;6.610;2024-01-15T23:07:13;1.30;99.90
3005;DHT22;1512;51.486;6.610;2024-01-15T23:11:22;1.30;99.90
3005;DHT22;1512;51.486;6.610;2024-01-15T23:15:31;1.30;99.90
3005;DHT22;1512;51.486;6.610;2024-01-15T23:19:40;1.30;99.90
3005;DHT22;1512;51.486;6.610;2024-01-15T23:23:48;1.30;99.90
3005;DHT22;1512;51.486;6.610;2024-01-15T23:27:57;1.20;99.90
3005;DHT22;1512;51.486;6.610;2024-01-15T23:32:06;1.30;99.90
3005;DHT22;1512;51.486;6.610;2024-01-15T23:36:14;1.30;99.90
3005;DHT22;1512;51.486;6.610;2024-01-15T23:40:23;1.30;99.90
3005;DHT22;1512;51.486;6.610;2024-01-15T23:44:32;1.20;99.90
3005;DHT22;1512;51.486;6.610;2024-01-15T23:48:42;1.20;99.90
3005;DHT22;1512;51.486;6.610;2024-01-15T23:52:51;1.20;99.90
3005;DHT22;1512;51.486;6.610;2024-01-15T23:57:00;1.20;99.90
